sensor_id;sensor_type;location;lat;lon;timestamp;pressure;altitude;pressure_sealevel;temperature;humidity
57628;BME280;43451;49.060;10.616;2023-04-03T00:00:27;97463.00;;;2.43;92.87
57628;BME280;43451;49.060;10.616;2023-04-03T00:02:53;97467.72;;;2.54;92.20
57628;BME280;43451;49.060;10.616;2023-04-03T00:05:18;97463.78;;;2.52;93.00
57628;BME280;43451;49.060;10.616;2023-04-03T00:07:43;97459.19;;;2.61;92.90
57628;BME280;43451;49.060;10.616;2023-04-03T00:10:09;97458.25;;;2.57;92.59
57628;BME280;43451;49.060;10.616;2023-04-03T00:12:35;97460.16;;;2.48;94.12
57628;BME280;43451;49.060;10.616;2023-04-03T00:15:00;97459.34;;;2.56;94.82
57628;BME280;43451;49.060;10.616;2023-04-03T00:17:25;97455.88;;;2.55;92.98
57628;BME280;43451;49.060;10.616;2023-04-03T00:19:50;97457.31;;;2.53;92.96
57628;BME280;43451;49.060;10.616;2023-04-03T00:22:16;97463.63;;;2.57;92.73
57628;BME280;43451;49.060;10.616;2023-04-03T00:24:41;97463.94;;;2.47;93.90
57628;BME280;43451;49.060;10.616;2023-04-03T00:27:07;97466.97;;;2.45;93.59
57628;BME280;43451;49.060;10.616;2023-04-03T00:29:32;97475.34;;;2.35;94.41
57628;BME280;43451;49.060;10.616;2023-04-03T00:31:57;97461.75;;;2.40;94.22
57628;BME280;43451;49.060;10.616;2023-04-03T00:34:22;97462.38;;;2.46;92.90
57628;BME280;43451;49.060;10.616;2023-04-03T00:36:48;97462.22;;;2.42;92.50
57628;BME280;43451;49.060;10.616;2023-04-03T00:39:13;97458.56;;;2.47;91.14
57628;BME280;43451;49.060;10.616;2023-04-03T00:41:38;97463.78;;;2.52;88.23
57628;BME280;43451;49.060;10.616;2023-04-03T00:44:20;97459.69;;;2.54;87.56
57628;BME280;43451;49.060;10.616;2023-04-03T00:46:46;97457.91;;;2.67;87.51
57628;BME280;43451;49.060;10.616;2023-04-03T00:49:11;97458.84;;;2.63;87.85
57628;BME280;43451;49.060;10.616;2023-04-03T00:51:36;97456.38;;;2.49;89.56
57628;BME280;43451;49.060;10.616;2023-04-03T00:54:03;97464.72;;;2.47;90.75
57628;BME280;43451;49.060;10.616;2023-04-03T00:56:30;97456.53;;;2.44;91.81
57628;BME280;43451;49.060;10.616;2023-04-03T00:58:59;97458.09;;;2.53;91.99
57628;BME280;43451;49.060;10.616;2023-04-03T01:01:27;97456.84;;;2.51;90.72
57628;BME280;43451;49.060;10.616;2023-04-03T01:03:53;97457.34;;;2.44;90.34
57628;BME280;43451;49.060;10.616;2023-04-03T01:06:29;97460.47;;;2.46;91.28
57628;BME280;43451;49.060;10.616;2023-04-03T01:08:57;97454.75;;;2.65;90.81
57628;BME280;43451;49.060;10.616;2023-04-03T01:11:22;97456.66;;;2.56;90.90
57628;BME280;43451;49.060;10.616;2023-04-03T01:13:48;97453.84;;;2.44;92.24
57628;BME280;43451;49.060;10.616;2023-04-03T01:16:14;97457.94;;;2.50;92.38
57628;BME280;43451;49.060;10.616;2023-04-03T01:18:39;97454.19;;;2.42;91.72
57628;BME280;43451;49.060;10.616;2023-04-03T01:21:21;97455.31;;;2.41;92.64
57628;BME280;43451;49.060;10.616;2023-04-03T01:24:03;97457.94;;;2.50;92.53
57628;BME280;43451;49.060;10.616;2023-04-03T01:26:33;97452.75;;;2.45;92.81
57628;BME280;43451;49.060;10.616;2023-04-03T01:28:59;97454.03;;;2.39;93.42
57628;BME280;43451;49.060;10.616;2023-04-03T01:31:30;97453.41;;;2.42;93.99
57628;BME280;43451;49.060;10.616;2023-04-03T01:33:55;97457.50;;;2.39;94.08
57628;BME280;43451;49.060;10.616;2023-04-03T01:36:23;97454.81;;;2.39;94.85
57628;BME280;43451;49.060;10.616;2023-04-03T01:38:49;97451.03;;;2.31;94.61
57628;BME280;43451;49.060;10.616;2023-04-03T01:41:15;97462.09;;;2.21;95.97
57628;BME280;43451;49.060;10.616;2023-04-03T01:43:41;97454.38;;;2.28;94.37
57628;BME280;43451;49.060;10.616;2023-04-03T01:46:06;97453.28;;;2.29;92.54
57628;BME280;43451;49.060;10.616;2023-04-03T01:48:32;97464.28;;;2.37;92.65
57628;BME280;43451;49.060;10.616;2023-04-03T01:50:58;97466.81;;;2.33;93.14
57628;BME280;43451;49.060;10.616;2023-04-03T01:53:23;97458.94;;;2.37;92.11
57628;BME280;43451;49.060;10.616;2023-04-03T01:55:48;97459.75;;;2.20;91.18
57628;BME280;43451;49.060;10.616;2023-04-03T01:58:14;97456.59;;;2.18;90.99
57628;BME280;43451;49.060;10.616;2023-04-03T02:00:39;97456.63;;;2.00;91.48
57628;BME280;43451;49.060;10.616;2023-04-03T02:03:04;97462.47;;;1.94;93.62
57628;BME280;43451;49.060;10.616;2023-04-03T02:05:30;97449.53;;;1.96;92.66
57628;BME280;43451;49.060;10.616;2023-04-03T02:07:55;97459.28;;;2.09;92.83
57628;BME280;43451;49.060;10.616;2023-04-03T02:10:21;97461.03;;;2.14;93.52
57628;BME280;43451;49.060;10.616;2023-04-03T02:12:46;97461.38;;;2.03;92.48
57628;BME280;43451;49.060;10.616;2023-04-03T02:15:12;97462.44;;;2.11;91.64
57628;BME280;43451;49.060;10.616;2023-04-03T02:17:37;97467.03;;;2.11;91.89
57628;BME280;43451;49.060;10.616;2023-04-03T02:20:03;97463.88;;;2.00;94.01
57628;BME280;43451;49.060;10.616;2023-04-03T02:22:28;97464.66;;;2.09;93.43
57628;BME280;43451;49.060;10.616;2023-04-03T02:24:54;97467.50;;;2.13;94.29
57628;BME280;43451;49.060;10.616;2023-04-03T02:27:19;97472.19;;;2.24;93.48
57628;BME280;43451;49.060;10.616;2023-04-03T02:29:44;97475.06;;;2.19;93.42
57628;BME280;43451;49.060;10.616;2023-04-03T02:32:10;97468.25;;;2.30;92.87
57628;BME280;43451;49.060;10.616;2023-04-03T02:34:35;97473.16;;;2.28;93.36
57628;BME280;43451;49.060;10.616;2023-04-03T02:37:01;97470.63;;;2.32;92.90
57628;BME280;43451;49.060;10.616;2023-04-03T02:39:26;97473.59;;;2.30;92.73
57628;BME280;43451;49.060;10.616;2023-04-03T02:41:52;97472.53;;;2.14;93.19
57628;BME280;43451;49.060;10.616;2023-04-03T02:44:17;97470.34;;;2.16;94.93
57628;BME280;43451;49.060;10.616;2023-04-03T02:46:43;97470.81;;;2.09;94.47
57628;BME280;43451;49.060;10.616;2023-04-03T02:49:09;97470.19;;;2.13;94.64
57628;BME280;43451;49.060;10.616;2023-04-03T02:51:34;97466.88;;;2.07;94.74
57628;BME280;43451;49.060;10.616;2023-04-03T02:53:59;97470.47;;;2.11;94.02
57628;BME280;43451;49.060;10.616;2023-04-03T02:56:25;97468.91;;;2.10;94.08
57628;BME280;43451;49.060;10.616;2023-04-03T02:58:52;97460.72;;;1.98;94.32
57628;BME280;43451;49.060;10.616;2023-04-03T03:01:17;97460.72;;;1.89;96.08
57628;BME280;43451;49.060;10.616;2023-04-03T03:03:43;97468.47;;;1.91;96.29
57628;BME280;43451;49.060;10.616;2023-04-03T03:06:15;97468.47;;;1.91;95.90
57628;BME280;43451;49.060;10.616;2023-04-03T03:08:41;97472.69;;;1.83;94.68
57628;BME280;43451;49.060;10.616;2023-04-03T03:11:07;97465.78;;;1.73;95.36
57628;BME280;43451;49.060;10.616;2023-04-03T03:13:33;97470.66;;;1.71;96.21
57628;BME280;43451;49.060;10.616;2023-04-03T03:15:58;97467.50;;;1.69;96.38
57628;BME280;43451;49.060;10.616;2023-04-03T03:18:24;97470.97;;;1.78;95.51
57628;BME280;43451;49.060;10.616;2023-04-03T03:20:53;97467.50;;;1.69;95.41
57628;BME280;43451;49.060;10.616;2023-04-03T03:23:18;97470.50;;;1.85;94.74
57628;BME280;43451;49.060;10.616;2023-04-03T03:25:44;97476.16;;;1.92;94.60
57628;BME280;43451;49.060;10.616;2023-04-03T03:28:09;97459.16;;;1.88;93.95
57628;BME280;43451;49.060;10.616;2023-04-03T03:30:36;97461.50;;;1.90;93.77
57628;BME280;43451;49.060;10.616;2023-04-03T03:33:01;97461.34;;;1.86;93.75
57628;BME280;43451;49.060;10.616;2023-04-03T03:35:27;97463.09;;;1.91;93.50
57628;BME280;43451;49.060;10.616;2023-04-03T03:37:52;97460.72;;;1.80;93.79
57628;BME280;43451;49.060;10.616;2023-04-03T03:40:17;97462.16;;;1.78;94.38
57628;BME280;43451;49.060;10.616;2023-04-03T03:42:43;97461.03;;;1.70;94.27
57628;BME280;43451;49.060;10.616;2023-04-03T03:45:08;97462.00;;;1.57;95.05
57628;BME280;43451;49.060;10.616;2023-04-03T03:47:34;97462.31;;;1.47;96.31
57628;BME280;43451;49.060;10.616;2023-04-03T03:49:59;97467.63;;;1.38;96.34
57628;BME280;43451;49.060;10.616;2023-04-03T03:52:25;97467.31;;;1.31;97.93
57628;BME280;43451;49.060;10.616;2023-04-03T03:54:51;97461.50;;;1.37;97.88
57628;BME280;43451;49.060;10.616;2023-04-03T03:57:16;97465.44;;;1.40;97.21
57628;BME280;43451;49.060;10.616;2023-04-03T03:59:41;97460.56;;;1.51;96.88
57628;BME280;43451;49.060;10.616;2023-04-03T04:02:08;97464.50;;;1.45;96.50
57628;BME280;43451;49.060;10.616;2023-04-03T04:04:34;97465.56;;;1.35;98.45
57628;BME280;43451;49.060;10.616;2023-04-03T04:06:59;97463.72;;;1.53;96.70
57628;BME280;43451;49.060;10.616;2023-04-03T04:09:26;97470.03;;;1.57;96.07
57628;BME280;43451;49.060;10.616;2023-04-03T04:11:51;97470.50;;;1.50;96.93
57628;BME280;43451;49.060;10.616;2023-04-03T04:14:16;97470.34;;;1.64;95.48
57628;BME280;43451;49.060;10.616;2023-04-03T04:16:41;97468.56;;;1.42;96.14
57628;BME280;43451;49.060;10.616;2023-04-03T04:19:07;97465.91;;;1.33;96.89
57628;BME280;43451;49.060;10.616;2023-04-03T04:21:32;97474.53;;;1.22;98.61
57628;BME280;43451;49.060;10.616;2023-04-03T04:23:57;97472.78;;;1.17;100.00
57628;BME280;43451;49.060;10.616;2023-04-03T04:26:23;97480.19;;;1.20;98.27
57628;BME280;43451;49.060;10.616;2023-04-03T04:28:49;97477.34;;;1.16;98.19
57628;BME280;43451;49.060;10.616;2023-04-03T04:31:14;97477.50;;;1.11;97.98
57628;BME280;43451;49.060;10.616;2023-04-03T04:33:39;97477.19;;;1.13;100.00
57628;BME280;43451;49.060;10.616;2023-04-03T04:36:05;97475.63;;;1.12;100.00
57628;BME280;43451;49.060;10.616;2023-04-03T04:38:30;97487.06;;;1.04;100.00
57628;BME280;43451;49.060;10.616;2023-04-03T04:40:55;97476.38;;;1.04;100.00
57628;BME280;43451;49.060;10.616;2023-04-03T04:43:21;97489.13;;;1.07;100.00
57628;BME280;43451;49.060;10.616;2023-04-03T04:45:46;97479.84;;;1.13;100.00
57628;BME280;43451;49.060;10.616;2023-04-03T04:48:11;97480.81;;;1.17;100.00
57628;BME280;43451;49.060;10.616;2023-04-03T04:50:37;97488.22;;;1.11;100.00
57628;BME280;43451;49.060;10.616;2023-04-03T04:53:02;97497.63;;;1.09;100.00
57628;BME280;43451;49.060;10.616;2023-04-03T04:55:29;97491.38;;;1.22;100.00
57628;BME280;43451;49.060;10.616;2023-04-03T04:57:54;97495.63;;;1.14;100.00
57628;BME280;43451;49.060;10.616;2023-04-03T05:00:20;97501.75;;;1.24;100.00
57628;BME280;43451;49.060;10.616;2023-04-03T05:02:45;97499.88;;;1.24;100.00
57628;BME280;43451;49.060;10.616;2023-04-03T05:05:10;97488.25;;;1.29;100.00
57628;BME280;43451;49.060;10.616;2023-04-03T05:07:36;97492.81;;;1.28;100.00
57628;BME280;43451;49.060;10.616;2023-04-03T05:10:01;97504.44;;;1.24;100.00
57628;BME280;43451;49.060;10.616;2023-04-03T05:12:27;97501.47;;;1.25;100.00
57628;BME280;43451;49.060;10.616;2023-04-03T05:14:53;97500.69;;;1.42;100.00
57628;BME280;43451;49.060;10.616;2023-04-03T05:17:18;97502.28;;;1.34;100.00
57628;BME280;43451;49.060;10.616;2023-04-03T05:19:43;97507.19;;;1.50;100.00
57628;BME280;43451;49.060;10.616;2023-04-03T05:22:09;97503.88;;;1.61;100.00
57628;BME280;43451;49.060;10.616;2023-04-03T05:24:34;97501.84;;;1.50;100.00
57628;BME280;43451;49.060;10.616;2023-04-03T05:26:59;97505.63;;;1.57;100.00
57628;BME280;43451;49.060;10.616;2023-04-03T05:29:25;97513.78;;;1.44;100.00
57628;BME280;43451;49.060;10.616;2023-04-03T05:31:50;97508.91;;;1.54;100.00
57628;BME280;43451;49.060;10.616;2023-04-03T05:34:16;97513.16;;;1.47;100.00
57628;BME280;43451;49.060;10.616;2023-04-03T05:36:41;97509.56;;;1.60;100.00
57628;BME280;43451;49.060;10.616;2023-04-03T05:39:06;97509.06;;;1.58;100.00
57628;BME280;43451;49.060;10.616;2023-04-03T05:41:32;97502.94;;;1.57;100.00
57628;BME280;43451;49.060;10.616;2023-04-03T05:43:57;97509.41;;;1.65;100.00
57628;BME280;43451;49.060;10.616;2023-04-03T05:46:22;97515.09;;;1.72;100.00
57628;BME280;43451;49.060;10.616;2023-04-03T05:48:48;97519.19;;;1.70;100.00
57628;BME280;43451;49.060;10.616;2023-04-03T05:51:14;97510.38;;;1.78;100.00
57628;BME280;43451;49.060;10.616;2023-04-03T05:53:40;97511.00;;;1.75;100.00
57628;BME280;43451;49.060;10.616;2023-04-03T05:56:06;97513.22;;;1.81;100.00
57628;BME280;43451;49.060;10.616;2023-04-03T05:58:31;97522.03;;;1.91;100.00
57628;BME280;43451;49.060;10.616;2023-04-03T06:00:57;97521.22;;;1.90;100.00
57628;BME280;43451;49.060;10.616;2023-04-03T06:03:22;97521.56;;;1.80;100.00
57628;BME280;43451;49.060;10.616;2023-04-03T06:05:47;97525.50;;;1.91;100.00
57628;BME280;43451;49.060;10.616;2023-04-03T06:08:13;97529.63;;;1.97;100.00
57628;BME280;43451;49.060;10.616;2023-04-03T06:10:39;97532.13;;;1.94;100.00
57628;BME280;43451;49.060;10.616;2023-04-03T06:13:05;97520.78;;;1.97;100.00
57628;BME280;43451;49.060;10.616;2023-04-03T06:15:31;97526.75;;;2.02;100.00
57628;BME280;43451;49.060;10.616;2023-04-03T06:17:56;97525.34;;;2.05;100.00
57628;BME280;43451;49.060;10.616;2023-04-03T06:20:21;97532.91;;;2.29;100.00
57628;BME280;43451;49.060;10.616;2023-04-03T06:22:47;97535.25;;;2.30;100.00
57628;BME280;43451;49.060;10.616;2023-04-03T06:25:12;97534.50;;;2.13;99.78
57628;BME280;43451;49.060;10.616;2023-04-03T06:27:38;97534.19;;;2.14;100.00
57628;BME280;43451;49.060;10.616;2023-04-03T06:30:04;97532.59;;;2.04;100.00
57628;BME280;43451;49.060;10.616;2023-04-03T06:32:29;97541.88;;;2.24;100.00
57628;BME280;43451;49.060;10.616;2023-04-03T06:34:55;97539.84;;;2.39;100.00
57628;BME280;43451;49.060;10.616;2023-04-03T06:37:21;97547.72;;;2.35;100.00
57628;BME280;43451;49.060;10.616;2023-04-03T06:39:47;97538.44;;;2.32;100.00
57628;BME280;43451;49.060;10.616;2023-04-03T06:42:12;97542.19;;;2.31;100.00
57628;BME280;43451;49.060;10.616;2023-04-03T06:44:38;97547.25;;;2.24;99.86
57628;BME280;43451;49.060;10.616;2023-04-03T06:47:03;97551.66;;;2.03;100.00
57628;BME280;43451;49.060;10.616;2023-04-03T06:49:29;97539.50;;;2.31;100.00
57628;BME280;43451;49.060;10.616;2023-04-03T06:51:55;97543.16;;;2.44;99.66
57628;BME280;43451;49.060;10.616;2023-04-03T06:54:21;97549.91;;;2.59;99.43
57628;BME280;43451;49.060;10.616;2023-04-03T06:56:46;97543.28;;;2.56;100.00
57628;BME280;43451;49.060;10.616;2023-04-03T06:59:11;97545.94;;;2.65;99.98
57628;BME280;43451;49.060;10.616;2023-04-03T07:01:38;97554.00;;;2.65;100.00
57628;BME280;43451;49.060;10.616;2023-04-03T07:04:03;97559.53;;;2.60;98.86
57628;BME280;43451;49.060;10.616;2023-04-03T07:06:29;97568.22;;;2.57;99.20
57628;BME280;43451;49.060;10.616;2023-04-03T07:08:56;97555.44;;;2.54;99.21
57628;BME280;43451;49.060;10.616;2023-04-03T07:11:21;97563.66;;;2.49;98.62
57628;BME280;43451;49.060;10.616;2023-04-03T07:13:47;97571.34;;;2.68;98.72
57628;BME280;43451;49.060;10.616;2023-04-03T07:16:13;97569.00;;;2.58;100.00
57628;BME280;43451;49.060;10.616;2023-04-03T07:18:38;97569.59;;;2.81;100.00
57628;BME280;43451;49.060;10.616;2023-04-03T07:21:04;97576.66;;;2.85;98.49
57628;BME280;43451;49.060;10.616;2023-04-03T07:23:29;97573.38;;;2.79;96.35
57628;BME280;43451;49.060;10.616;2023-04-03T07:25:54;97579.25;;;2.73;95.82
57628;BME280;43451;49.060;10.616;2023-04-03T07:28:20;97579.41;;;2.68;97.24
57628;BME280;43451;49.060;10.616;2023-04-03T07:31:10;97578.47;;;2.64;96.79
57628;BME280;43451;49.060;10.616;2023-04-03T07:33:33;97578.28;;;2.77;98.32
57628;BME280;43451;49.060;10.616;2023-04-03T07:36:00;97580.31;;;2.81;97.93
57628;BME280;43451;49.060;10.616;2023-04-03T07:38:25;97576.19;;;2.92;97.24
57628;BME280;43451;49.060;10.616;2023-04-03T07:40:51;97573.31;;;2.97;96.78
57628;BME280;43451;49.060;10.616;2023-04-03T07:43:17;97576.19;;;2.92;95.04
57628;BME280;43451;49.060;10.616;2023-04-03T07:45:43;97583.28;;;2.96;96.26
57628;BME280;43451;49.060;10.616;2023-04-03T07:48:09;97589.22;;;3.11;94.56
57628;BME280;43451;49.060;10.616;2023-04-03T07:50:35;97589.41;;;3.14;95.14
57628;BME280;43451;49.060;10.616;2023-04-03T07:53:01;97588.13;;;3.12;94.36
57628;BME280;43451;49.060;10.616;2023-04-03T07:55:26;97590.00;;;3.20;94.73
57628;BME280;43451;49.060;10.616;2023-04-03T07:57:52;97587.78;;;3.22;93.32
57628;BME280;43451;49.060;10.616;2023-04-03T08:00:17;97592.25;;;3.09;94.48
57628;BME280;43451;49.060;10.616;2023-04-03T08:02:44;97599.81;;;3.07;93.14
57628;BME280;43451;49.060;10.616;2023-04-03T08:05:15;97593.03;;;3.10;92.85
57628;BME280;43451;49.060;10.616;2023-04-03T08:07:40;97597.13;;;3.07;94.13
57628;BME280;43451;49.060;10.616;2023-04-03T08:10:05;97606.44;;;3.18;92.96
57628;BME280;43451;49.060;10.616;2023-04-03T08:12:31;97594.56;;;3.19;93.12
57628;BME280;43451;49.060;10.616;2023-04-03T08:14:57;97594.22;;;3.30;92.51
57628;BME280;43451;49.060;10.616;2023-04-03T08:17:22;97597.34;;;3.40;92.03
57628;BME280;43451;49.060;10.616;2023-04-03T08:19:48;97588.94;;;3.42;92.37
57628;BME280;43451;49.060;10.616;2023-04-03T08:22:13;97594.97;;;3.39;91.51
57628;BME280;43451;49.060;10.616;2023-04-03T08:24:38;97601.56;;;3.50;90.97
57628;BME280;43451;49.060;10.616;2023-04-03T08:27:04;97606.06;;;3.67;93.41
57628;BME280;43451;49.060;10.616;2023-04-03T08:29:29;97605.03;;;3.80;90.33
57628;BME280;43451;49.060;10.616;2023-04-03T08:31:55;97599.81;;;3.54;88.00
57628;BME280;43451;49.060;10.616;2023-04-03T08:34:20;97593.63;;;3.83;90.40
57628;BME280;43451;49.060;10.616;2023-04-03T08:36:46;97597.94;;;3.84;88.19
57628;BME280;43451;49.060;10.616;2023-04-03T08:39:12;97603.59;;;3.83;86.21
57628;BME280;43451;49.060;10.616;2023-04-03T08:41:38;97597.19;;;3.75;86.41
57628;BME280;43451;49.060;10.616;2023-04-03T08:49:01;97601.47;;;3.67;86.09
57628;BME280;43451;49.060;10.616;2023-04-03T08:51:26;97602.41;;;3.71;87.20
57628;BME280;43451;49.060;10.616;2023-04-03T08:56:18;97603.31;;;3.84;86.94
57628;BME280;43451;49.060;10.616;2023-04-03T09:03:41;97612.19;;;4.27;83.53
57628;BME280;43451;49.060;10.616;2023-04-03T09:06:17;97610.63;;;4.26;81.85
57628;BME280;43451;49.060;10.616;2023-04-03T09:11:16;97614.34;;;4.33;81.09
57628;BME280;43451;49.060;10.616;2023-04-03T09:13:53;97616.22;;;4.12;81.58
57628;BME280;43451;49.060;10.616;2023-04-03T09:16:46;97616.13;;;4.29;83.11
57628;BME280;43451;49.060;10.616;2023-04-03T09:21:35;97619.19;;;4.40;80.35
57628;BME280;43451;49.060;10.616;2023-04-03T09:24:02;97613.09;;;4.31;79.09
57628;BME280;43451;49.060;10.616;2023-04-03T09:26:31;97622.53;;;4.37;79.67
57628;BME280;43451;49.060;10.616;2023-04-03T09:29:01;97616.88;;;4.09;80.00
57628;BME280;43451;49.060;10.616;2023-04-03T09:31:29;97610.13;;;4.03;80.41
57628;BME280;43451;49.060;10.616;2023-04-03T09:34:02;97613.22;;;4.13;82.33
57628;BME280;43451;49.060;10.616;2023-04-03T09:36:48;97615.06;;;4.22;78.18
57628;BME280;43451;49.060;10.616;2023-04-03T09:39:16;97614.03;;;4.35;78.64
57628;BME280;43451;49.060;10.616;2023-04-03T09:41:42;97607.13;;;4.46;76.83
57628;BME280;43451;49.060;10.616;2023-04-03T09:44:21;97604.44;;;4.46;76.74
57628;BME280;43451;49.060;10.616;2023-04-03T09:46:47;97598.66;;;4.56;75.13
57628;BME280;43451;49.060;10.616;2023-04-03T09:49:12;97601.31;;;4.44;74.42
57628;BME280;43451;49.060;10.616;2023-04-03T09:51:37;97611.13;;;4.40;71.30
57628;BME280;43451;49.060;10.616;2023-04-03T09:56:49;97613.03;;;4.39;73.34
57628;BME280;43451;49.060;10.616;2023-04-03T09:59:15;97609.88;;;4.37;74.33
57628;BME280;43451;49.060;10.616;2023-04-03T10:01:42;97607.72;;;4.31;71.78
57628;BME280;43451;49.060;10.616;2023-04-03T10:06:38;97607.72;;;4.31;66.30
57628;BME280;43451;49.060;10.616;2023-04-03T10:14:29;97611.59;;;4.21;72.00
57628;BME280;43451;49.060;10.616;2023-04-03T10:19:52;97601.16;;;4.19;73.95
57628;BME280;43451;49.060;10.616;2023-04-03T10:22:21;97608.78;;;4.17;71.07
57628;BME280;43451;49.060;10.616;2023-04-03T10:27:37;97599.78;;;4.13;70.97
57628;BME280;43451;49.060;10.616;2023-04-03T10:35:36;97597.44;;;4.66;64.03
57628;BME280;43451;49.060;10.616;2023-04-03T10:38:07;97594.19;;;4.60;64.62
57628;BME280;43451;49.060;10.616;2023-04-03T10:43:28;97583.41;;;4.94;61.93
57628;BME280;43451;49.060;10.616;2023-04-03T10:46:02;97595.22;;;5.13;60.21
57628;BME280;43451;49.060;10.616;2023-04-03T10:53:44;97573.06;;;5.53;59.89
57628;BME280;43451;49.060;10.616;2023-04-03T11:01:38;97572.19;;;5.62;59.06
57628;BME280;43451;49.060;10.616;2023-04-03T11:04:05;97577.56;;;5.62;58.23
57628;BME280;43451;49.060;10.616;2023-04-03T11:06:36;97570.91;;;5.34;57.50
57628;BME280;43451;49.060;10.616;2023-04-03T11:09:19;97572.59;;;5.27;57.90
57628;BME280;43451;49.060;10.616;2023-04-03T11:11:47;97577.00;;;5.44;57.88
57628;BME280;43451;49.060;10.616;2023-04-03T11:14:33;97563.16;;;5.45;58.54
57628;BME280;43451;49.060;10.616;2023-04-03T11:19:45;97560.25;;;5.63;56.24
57628;BME280;43451;49.060;10.616;2023-04-03T11:22:21;97563.84;;;5.67;56.92
57628;BME280;43451;49.060;10.616;2023-04-03T11:24:51;97564.41;;;5.60;56.51
57628;BME280;43451;49.060;10.616;2023-04-03T11:27:20;97568.56;;;5.45;57.52
57628;BME280;43451;49.060;10.616;2023-04-03T11:29:47;97558.47;;;5.67;58.23
57628;BME280;43451;49.060;10.616;2023-04-03T11:34:44;97561.34;;;6.11;56.39
57628;BME280;43451;49.060;10.616;2023-04-03T11:37:13;97555.25;;;6.14;55.61
57628;BME280;43451;49.060;10.616;2023-04-03T11:39:39;97557.66;;;5.91;56.78
57628;BME280;43451;49.060;10.616;2023-04-03T11:52:58;97547.00;;;5.70;56.00
57628;BME280;43451;49.060;10.616;2023-04-03T12:03:56;97548.59;;;5.58;57.94
57628;BME280;43451;49.060;10.616;2023-04-03T12:16:25;97530.06;;;6.22;53.27
57628;BME280;43451;49.060;10.616;2023-04-03T12:26:26;97521.13;;;6.34;54.72
57628;BME280;43451;49.060;10.616;2023-04-03T12:28:53;97538.84;;;6.47;52.19
57628;BME280;43451;49.060;10.616;2023-04-03T12:31:19;97522.59;;;6.31;52.46
57628;BME280;43451;49.060;10.616;2023-04-03T12:36:42;97527.84;;;6.12;51.19
57628;BME280;43451;49.060;10.616;2023-04-03T12:39:34;97509.91;;;5.91;51.92
57628;BME280;43451;49.060;10.616;2023-04-03T12:42:11;97519.34;;;5.97;56.82
57628;BME280;43451;49.060;10.616;2023-04-03T12:44:46;97509.19;;;6.19;53.19
57628;BME280;43451;49.060;10.616;2023-04-03T12:47:22;97507.94;;;6.44;50.82
57628;BME280;43451;49.060;10.616;2023-04-03T12:49:49;97515.38;;;6.07;49.67
57628;BME280;43451;49.060;10.616;2023-04-03T12:52:19;97506.72;;;6.14;52.54
57628;BME280;43451;49.060;10.616;2023-04-03T12:54:47;97504.50;;;6.03;50.82
57628;BME280;43451;49.060;10.616;2023-04-03T12:59:41;97512.13;;;5.89;53.02
57628;BME280;43451;49.060;10.616;2023-04-03T13:02:25;97505.50;;;5.99;52.49
57628;BME280;43451;49.060;10.616;2023-04-03T13:04:52;97499.59;;;6.49;52.34
57628;BME280;43451;49.060;10.616;2023-04-03T13:12:32;97495.38;;;6.36;50.15
57628;BME280;43451;49.060;10.616;2023-04-03T13:14:59;97506.13;;;6.20;51.19
57628;BME280;43451;49.060;10.616;2023-04-03T13:17:26;97502.41;;;6.25;51.22
57628;BME280;43451;49.060;10.616;2023-04-03T13:19:52;97499.25;;;6.23;50.69
57628;BME280;43451;49.060;10.616;2023-04-03T13:24:56;97490.56;;;6.01;51.64
57628;BME280;43451;49.060;10.616;2023-04-03T13:27:23;97495.91;;;6.14;50.99
57628;BME280;43451;49.060;10.616;2023-04-03T13:29:50;97497.50;;;6.02;53.27
57628;BME280;43451;49.060;10.616;2023-04-03T13:32:20;97501.81;;;6.03;51.29
57628;BME280;43451;49.060;10.616;2023-04-03T13:34:46;97497.69;;;5.94;50.25
57628;BME280;43451;49.060;10.616;2023-04-03T13:37:19;97492.72;;;6.24;50.55
57628;BME280;43451;49.060;10.616;2023-04-03T13:39:45;97492.75;;;6.68;50.86
57628;BME280;43451;49.060;10.616;2023-04-03T13:42:20;97475.69;;;6.95;48.60
57628;BME280;43451;49.060;10.616;2023-04-03T13:44:47;97478.03;;;7.29;50.25
57628;BME280;43451;49.060;10.616;2023-04-03T13:49:39;97479.97;;;7.63;45.64
57628;BME280;43451;49.060;10.616;2023-04-03T13:54:47;97466.69;;;7.74;48.06
57628;BME280;43451;49.060;10.616;2023-04-03T13:57:16;97471.38;;;7.77;47.37
57628;BME280;43451;49.060;10.616;2023-04-03T13:59:42;97471.69;;;7.56;47.50
57628;BME280;43451;49.060;10.616;2023-04-03T14:06:58;97478.03;;;6.81;48.53
57628;BME280;43451;49.060;10.616;2023-04-03T14:09:25;97483.84;;;6.51;46.54
57628;BME280;43451;49.060;10.616;2023-04-03T14:11:56;97479.13;;;6.48;46.35
57628;BME280;43451;49.060;10.616;2023-04-03T14:14:23;97475.97;;;6.46;46.82
57628;BME280;43451;49.060;10.616;2023-04-03T14:16:52;97474.16;;;6.35;47.79
57628;BME280;43451;49.060;10.616;2023-04-03T14:19:24;97477.00;;;6.26;45.17
57628;BME280;43451;49.060;10.616;2023-04-03T14:21:50;97467.28;;;6.53;47.61
57628;BME280;43451;49.060;10.616;2023-04-03T14:24:16;97463.06;;;7.00;47.75
57628;BME280;43451;49.060;10.616;2023-04-03T14:26:42;97454.38;;;7.41;46.67
57628;BME280;43451;49.060;10.616;2023-04-03T14:29:09;97457.44;;;7.75;45.44
57628;BME280;43451;49.060;10.616;2023-04-03T14:31:35;97447.59;;;7.86;42.25
57628;BME280;43451;49.060;10.616;2023-04-03T14:34:00;97443.47;;;7.73;43.50
57628;BME280;43451;49.060;10.616;2023-04-03T14:36:27;97447.38;;;7.56;43.89
57628;BME280;43451;49.060;10.616;2023-04-03T14:38:53;97441.59;;;7.22;43.91
57628;BME280;43451;49.060;10.616;2023-04-03T14:41:20;97446.06;;;7.15;44.73
57628;BME280;43451;49.060;10.616;2023-04-03T14:43:46;97444.69;;;6.89;43.74
57628;BME280;43451;49.060;10.616;2023-04-03T14:46:13;97449.09;;;6.66;46.38
57628;BME280;43451;49.060;10.616;2023-04-03T14:48:39;97439.75;;;6.32;48.27
57628;BME280;43451;49.060;10.616;2023-04-03T14:51:05;97446.03;;;6.08;49.81
57628;BME280;43451;49.060;10.616;2023-04-03T14:53:30;97444.53;;;6.22;49.33